CFG8L EGCC-EDHL
Flight info
| Callsign | CFG8L |
|---|---|
| Flight time | 1h 17m |
| Altitude | 37000 |
| Route | DESIG L603 BUKUT DCT LAMSO DCT XEBOT DCT ELSOB N850 BOGMU BOGMU2R |
| Aircraft | A320/M-SDE3FGHIRWY/LB1 |
Departure
| Time | 2026-04-23 20:59 |
|---|---|
| Airport | Manchester Airport (EGCC) |
Arrival
| Time | 2026-04-23 22:17 |
|---|---|
| Airport | Lübeck Blankensee Airport (EDHL) |
| Time | Latitude | Longitude | Altitude | Speed | Heading |
|---|---|---|---|---|---|
| 2026-04-23 20:20 | 53.36464 | -2.28763 | 255 ft | 0 kts | 228° |
| 2026-04-23 20:44 | 53.36464 | -2.28762 | 254 ft | 0 kts | 228° |
| 2026-04-23 20:44 | 53.36479 | -2.28739 | 254 ft | 3 kts | 211° |
| 2026-04-23 20:45 | 53.36499 | -2.28726 | 254 ft | 3 kts | 171° |
| 2026-04-23 20:45 | 53.36519 | -2.28742 | 254 ft | 3 kts | 127° |
| 2026-04-23 20:45 | 53.36526 | -2.28762 | 254 ft | 0 kts | 112° |
| 2026-04-23 20:50 | 53.36518 | -2.28719 | 254 ft | 5 kts | 99° |
| 2026-04-23 20:50 | 53.36526 | -2.28650 | 253 ft | 10 kts | 87° |
| 2026-04-23 20:50 | 53.36486 | -2.28556 | 253 ft | 9 kts | 133° |
| 2026-04-23 20:51 | 53.36442 | -2.28484 | 252 ft | 8 kts | 135° |
| 2026-04-23 20:51 | 53.36405 | -2.28422 | 252 ft | 7 kts | 134° |
| 2026-04-23 20:51 | 53.36374 | -2.28368 | 252 ft | 6 kts | 134° |
| 2026-04-23 20:51 | 53.36344 | -2.28317 | 252 ft | 9 kts | 134° |
| 2026-04-23 20:52 | 53.36260 | -2.28174 | 251 ft | 20 kts | 135° |
| 2026-04-23 20:52 | 53.36156 | -2.28000 | 250 ft | 21 kts | 135° |
| 2026-04-23 20:52 | 53.36062 | -2.27853 | 249 ft | 15 kts | 146° |
| 2026-04-23 20:52 | 53.35960 | -2.27839 | 249 ft | 14 kts | 186° |
| 2026-04-23 20:53 | 53.35864 | -2.27856 | 250 ft | 13 kts | 185° |
| 2026-04-23 20:53 | 53.35776 | -2.27869 | 250 ft | 12 kts | 185° |
| 2026-04-23 20:53 | 53.35703 | -2.27872 | 250 ft | 9 kts | 159° |
| 2026-04-23 20:53 | 53.35691 | -2.27864 | 250 ft | 2 kts | 179° |
| 2026-04-23 20:54 | 53.35634 | -2.27892 | 251 ft | 9 kts | 190° |
| 2026-04-23 20:54 | 53.35578 | -2.27905 | 251 ft | 7 kts | 185° |
| 2026-04-23 20:54 | 53.35515 | -2.27916 | 251 ft | 13 kts | 185° |
| 2026-04-23 20:54 | 53.35437 | -2.27941 | 251 ft | 3 kts | 194° |
| 2026-04-23 20:55 | 53.35417 | -2.27975 | 252 ft | 11 kts | 234° |
| 2026-04-23 20:55 | 53.35377 | -2.28051 | 252 ft | 7 kts | 226° |
| 2026-04-23 20:55 | 53.35333 | -2.28122 | 253 ft | 12 kts | 223° |
| 2026-04-23 20:55 | 53.35280 | -2.28207 | 254 ft | 11 kts | 225° |
| 2026-04-23 20:56 | 53.35214 | -2.28339 | 256 ft | 15 kts | 231° |
| 2026-04-23 20:56 | 53.35156 | -2.28458 | 257 ft | 12 kts | 230° |
| 2026-04-23 20:56 | 53.35110 | -2.28551 | 258 ft | 9 kts | 230° |
| 2026-04-23 20:56 | 53.35075 | -2.28622 | 259 ft | 7 kts | 231° |
| 2026-04-23 20:57 | 53.35051 | -2.28672 | 259 ft | 5 kts | 231° |
| 2026-04-23 20:57 | 53.34983 | -2.28792 | 261 ft | 19 kts | 225° |
| 2026-04-23 20:57 | 53.34892 | -2.28952 | 263 ft | 19 kts | 226° |
| 2026-04-23 20:57 | 53.34805 | -2.29119 | 265 ft | 19 kts | 229° |
| 2026-04-23 20:58 | 53.34717 | -2.29289 | 267 ft | 19 kts | 229° |
| 2026-04-23 20:58 | 53.34597 | -2.29335 | 270 ft | 18 kts | 169° |
| 2026-04-23 20:58 | 53.34558 | -2.29187 | 269 ft | 17 kts | 57° |
| 2026-04-23 20:58 | 53.34640 | -2.29006 | 267 ft | 25 kts | 50° |
| 2026-04-23 20:59 | 53.34902 | -2.28469 | 262 ft | 95 kts | 51° |
| 2026-04-23 20:59 | 53.35448 | -2.27335 | 248 ft | 152 kts | 52° |
| 2026-04-23 20:59 | 53.36143 | -2.25929 | 761 ft | 156 kts | 50° |
| 2026-04-23 20:59 | 53.36826 | -2.24549 | 1505 ft | 150 kts | 52° |
| 2026-04-23 21:00 | 53.37460 | -2.23263 | 2283 ft | 136 kts | 51° |
| 2026-04-23 21:00 | 53.38060 | -2.22066 | 2725 ft | 138 kts | 53° |
| 2026-04-23 21:00 | 53.38696 | -2.20721 | 2975 ft | 158 kts | 54° |
| 2026-04-23 21:00 | 53.39413 | -2.19148 | 3252 ft | 182 kts | 54° |
| 2026-04-23 21:01 | 53.40236 | -2.17352 | 3552 ft | 206 kts | 53° |
| 2026-04-23 21:01 | 53.41149 | -2.15373 | 3930 ft | 229 kts | 53° |
| 2026-04-23 21:01 | 53.42140 | -2.13119 | 4347 ft | 252 kts | 62° |
| 2026-04-23 21:01 | 53.42592 | -2.10213 | 5054 ft | 261 kts | 91° |
| 2026-04-23 21:02 | 53.42398 | -2.07154 | 5905 ft | 265 kts | 97° |
| 2026-04-23 21:02 | 53.42158 | -2.04102 | 6751 ft | 270 kts | 97° |
| 2026-04-23 21:02 | 53.41903 | -2.00911 | 7612 ft | 275 kts | 97° |
| 2026-04-23 21:02 | 53.41650 | -1.97757 | 8428 ft | 279 kts | 97° |
| 2026-04-23 21:03 | 53.41391 | -1.94505 | 9223 ft | 284 kts | 97° |
| 2026-04-23 21:03 | 53.41129 | -1.91206 | 10068 ft | 286 kts | 98° |
| 2026-04-23 21:03 | 53.40862 | -1.87869 | 10718 ft | 298 kts | 98° |
| 2026-04-23 21:03 | 53.40579 | -1.84304 | 10973 ft | 321 kts | 98° |
| 2026-04-23 21:04 | 53.40272 | -1.80445 | 11206 ft | 344 kts | 98° |
| 2026-04-23 21:04 | 53.39952 | -1.76401 | 11713 ft | 355 kts | 98° |
| 2026-04-23 21:04 | 53.39621 | -1.72261 | 12363 ft | 361 kts | 97° |
| 2026-04-23 21:04 | 53.39285 | -1.68071 | 13071 ft | 365 kts | 97° |
| 2026-04-23 21:05 | 53.38942 | -1.63842 | 13762 ft | 368 kts | 97° |
| 2026-04-23 21:05 | 53.38575 | -1.59584 | 14457 ft | 370 kts | 99° |
| 2026-04-23 21:05 | 53.38115 | -1.55328 | 15130 ft | 373 kts | 101° |
| 2026-04-23 21:05 | 53.37585 | -1.51052 | 15793 ft | 376 kts | 102° |
| 2026-04-23 21:06 | 53.37026 | -1.46761 | 16438 ft | 379 kts | 102° |
| 2026-04-23 21:06 | 53.36458 | -1.42432 | 17071 ft | 381 kts | 102° |
| 2026-04-23 21:06 | 53.35894 | -1.38079 | 17700 ft | 383 kts | 102° |
| 2026-04-23 21:06 | 53.35336 | -1.33684 | 18308 ft | 386 kts | 101° |
| 2026-04-23 21:07 | 53.34786 | -1.29274 | 18901 ft | 388 kts | 101° |
| 2026-04-23 21:07 | 53.34236 | -1.24828 | 19486 ft | 391 kts | 101° |
| 2026-04-23 21:07 | 53.33682 | -1.20359 | 20066 ft | 393 kts | 101° |
| 2026-04-23 21:07 | 53.33126 | -1.15868 | 20645 ft | 395 kts | 101° |
| 2026-04-23 21:08 | 53.32573 | -1.11411 | 21195 ft | 398 kts | 101° |
| 2026-04-23 21:08 | 53.32006 | -1.06871 | 21727 ft | 400 kts | 102° |
| 2026-04-23 21:08 | 53.31432 | -1.02307 | 22244 ft | 402 kts | 102° |
| 2026-04-23 21:08 | 53.30851 | -0.97725 | 22723 ft | 404 kts | 102° |
| 2026-04-23 21:09 | 53.30262 | -0.93115 | 23184 ft | 407 kts | 102° |
| 2026-04-23 21:09 | 53.29667 | -0.88468 | 23615 ft | 410 kts | 103° |
| 2026-04-23 21:09 | 53.29070 | -0.83804 | 24043 ft | 412 kts | 103° |
| 2026-04-23 21:09 | 53.28468 | -0.79102 | 24461 ft | 414 kts | 103° |
| 2026-04-23 21:10 | 53.27864 | -0.74381 | 24870 ft | 417 kts | 103° |
| 2026-04-23 21:10 | 53.27256 | -0.69638 | 25261 ft | 419 kts | 103° |
| 2026-04-23 21:10 | 53.26641 | -0.64867 | 25657 ft | 421 kts | 103° |
| 2026-04-23 21:10 | 53.26022 | -0.60082 | 26041 ft | 423 kts | 104° |
| 2026-04-23 21:11 | 53.25607 | -0.56897 | 26288 ft | 424 kts | 104° |
| 2026-04-23 21:11 | 53.24977 | -0.52071 | 26647 ft | 426 kts | 104° |
| 2026-04-23 21:11 | 53.24343 | -0.47225 | 26992 ft | 428 kts | 104° |
| 2026-04-23 21:11 | 53.23706 | -0.42359 | 27328 ft | 430 kts | 104° |
| 2026-04-23 21:12 | 53.23063 | -0.37473 | 27657 ft | 432 kts | 104° |
| 2026-04-23 21:12 | 53.22414 | -0.32570 | 27971 ft | 434 kts | 105° |
| 2026-04-23 21:12 | 53.21535 | -0.25982 | 28378 ft | 436 kts | 105° |
| 2026-04-23 21:12 | 53.21097 | -0.22711 | 28571 ft | 437 kts | 105° |
| 2026-04-23 21:13 | 53.20433 | -0.17757 | 28852 ft | 439 kts | 105° |
| 2026-04-23 21:13 | 53.19767 | -0.12783 | 29122 ft | 440 kts | 105° |
| 2026-04-23 21:13 | 53.19099 | -0.07793 | 29385 ft | 442 kts | 105° |
| 2026-04-23 21:13 | 53.18425 | -0.02784 | 29635 ft | 444 kts | 105° |
| 2026-04-23 21:14 | 53.17745 | 0.02240 | 29871 ft | 445 kts | 106° |
| 2026-04-23 21:14 | 53.17056 | 0.07298 | 30062 ft | 448 kts | 107° |
| 2026-04-23 21:14 | 53.16363 | 0.12377 | 30286 ft | 450 kts | 107° |
| 2026-04-23 21:14 | 53.15667 | 0.17457 | 30575 ft | 449 kts | 107° |
| 2026-04-23 21:15 | 53.14973 | 0.22522 | 30896 ft | 448 kts | 107° |
| 2026-04-23 21:15 | 53.14280 | 0.27566 | 31203 ft | 447 kts | 107° |
| 2026-04-23 21:15 | 53.13585 | 0.32611 | 31506 ft | 446 kts | 107° |
| 2026-04-23 21:15 | 53.12890 | 0.37633 | 31804 ft | 445 kts | 107° |
| 2026-04-23 21:16 | 53.12190 | 0.42644 | 32100 ft | 444 kts | 107° |
| 2026-04-23 21:16 | 53.11489 | 0.47644 | 32396 ft | 443 kts | 107° |
| 2026-04-23 21:16 | 53.10785 | 0.52633 | 32692 ft | 442 kts | 107° |
| 2026-04-23 21:16 | 53.10085 | 0.57604 | 32976 ft | 441 kts | 107° |
| 2026-04-23 21:17 | 53.09384 | 0.62570 | 33258 ft | 440 kts | 107° |
| 2026-04-23 21:17 | 53.08685 | 0.67521 | 33538 ft | 440 kts | 107° |
| 2026-04-23 21:17 | 53.07984 | 0.72471 | 33821 ft | 439 kts | 108° |
| 2026-04-23 21:17 | 53.07285 | 0.77398 | 34098 ft | 438 kts | 108° |
| 2026-04-23 21:18 | 53.06586 | 0.82319 | 34360 ft | 437 kts | 107° |
| 2026-04-23 21:18 | 53.05893 | 0.87172 | 34615 ft | 437 kts | 108° |
| 2026-04-23 21:18 | 53.05190 | 0.92079 | 34872 ft | 436 kts | 107° |
| 2026-04-23 21:18 | 53.04485 | 0.96988 | 35122 ft | 436 kts | 107° |
| 2026-04-23 21:19 | 53.03775 | 1.01880 | 35362 ft | 436 kts | 108° |
| 2026-04-23 21:19 | 53.03060 | 1.06774 | 35586 ft | 435 kts | 108° |
| 2026-04-23 21:19 | 53.02345 | 1.11658 | 35801 ft | 436 kts | 107° |
| 2026-04-23 21:19 | 53.01629 | 1.16546 | 36014 ft | 435 kts | 107° |
| 2026-04-23 21:20 | 53.00912 | 1.21437 | 36216 ft | 435 kts | 107° |
| 2026-04-23 21:20 | 53.00193 | 1.26314 | 36408 ft | 435 kts | 107° |
| 2026-04-23 21:20 | 52.99472 | 1.31197 | 36595 ft | 435 kts | 107° |
| 2026-04-23 21:20 | 52.98749 | 1.36078 | 36789 ft | 435 kts | 107° |
| 2026-04-23 21:21 | 52.98025 | 1.40940 | 37014 ft | 433 kts | 107° |
| 2026-04-23 21:21 | 52.97306 | 1.45774 | 37254 ft | 431 kts | 107° |
| 2026-04-23 21:21 | 52.96586 | 1.50590 | 37491 ft | 428 kts | 107° |
| 2026-04-23 21:21 | 52.95871 | 1.55381 | 37699 ft | 427 kts | 107° |
| 2026-04-23 21:22 | 52.95159 | 1.60148 | 37862 ft | 426 kts | 107° |
| 2026-04-23 21:22 | 52.94442 | 1.64920 | 38020 ft | 426 kts | 107° |
| 2026-04-23 21:22 | 52.93722 | 1.69682 | 38166 ft | 426 kts | 107° |
| 2026-04-23 21:22 | 52.93002 | 1.74439 | 38300 ft | 426 kts | 107° |
| 2026-04-23 21:23 | 52.92281 | 1.79201 | 38432 ft | 426 kts | 107° |
| 2026-04-23 21:23 | 52.91556 | 1.83963 | 38564 ft | 426 kts | 107° |
| 2026-04-23 21:23 | 52.90828 | 1.88724 | 38690 ft | 426 kts | 107° |
| 2026-04-23 21:23 | 52.90108 | 1.93416 | 38816 ft | 426 kts | 108° |
| 2026-04-23 21:24 | 52.89377 | 1.98167 | 38942 ft | 425 kts | 108° |
| 2026-04-23 21:24 | 52.88644 | 2.02906 | 39064 ft | 425 kts | 107° |
| 2026-04-23 21:24 | 52.87907 | 2.07654 | 39188 ft | 425 kts | 107° |
| 2026-04-23 21:24 | 52.87170 | 2.12399 | 39337 ft | 424 kts | 107° |
| 2026-04-23 21:25 | 52.85697 | 2.21878 | 39447 ft | 428 kts | 107° |
| 2026-04-23 21:25 | 52.84190 | 2.31459 | 39440 ft | 432 kts | 108° |
| 2026-04-23 21:26 | 52.82673 | 2.41084 | 39442 ft | 433 kts | 107° |
| 2026-04-23 21:26 | 52.81152 | 2.50722 | 39439 ft | 433 kts | 107° |
| 2026-04-23 21:27 | 52.79635 | 2.60278 | 39440 ft | 433 kts | 108° |
| 2026-04-23 21:27 | 52.78090 | 2.69902 | 39439 ft | 433 kts | 108° |
| 2026-04-23 21:28 | 52.76533 | 2.79521 | 39437 ft | 433 kts | 108° |
| 2026-04-23 21:28 | 52.74964 | 2.89138 | 39439 ft | 434 kts | 108° |
| 2026-04-23 21:29 | 52.73993 | 2.98967 | 39434 ft | 439 kts | 92° |
| 2026-04-23 21:29 | 52.74966 | 3.08946 | 39428 ft | 445 kts | 76° |
| 2026-04-23 21:30 | 52.76708 | 3.18748 | 39427 ft | 445 kts | 76° |
| 2026-04-23 21:30 | 52.78425 | 3.28578 | 39428 ft | 445 kts | 77° |
| 2026-04-23 21:31 | 52.80122 | 3.38432 | 39439 ft | 446 kts | 76° |
| 2026-04-23 21:31 | 52.81826 | 3.48303 | 39446 ft | 446 kts | 76° |
| 2026-04-23 21:32 | 52.83521 | 3.58180 | 39447 ft | 447 kts | 77° |
| 2026-04-23 21:32 | 52.85195 | 3.68006 | 39457 ft | 447 kts | 77° |
| 2026-04-23 21:33 | 52.86873 | 3.77897 | 39445 ft | 446 kts | 77° |
| 2026-04-23 21:33 | 52.88543 | 3.87788 | 39442 ft | 446 kts | 77° |
| 2026-04-23 21:34 | 52.90207 | 3.97684 | 39442 ft | 446 kts | 77° |
| 2026-04-23 21:34 | 52.91860 | 4.07592 | 39439 ft | 446 kts | 76° |
| 2026-04-23 21:35 | 52.93510 | 4.17501 | 39440 ft | 446 kts | 76° |
| 2026-04-23 21:35 | 52.95146 | 4.27428 | 39435 ft | 447 kts | 77° |
| 2026-04-23 21:36 | 52.97584 | 4.42356 | 39432 ft | 447 kts | 77° |
| 2026-04-23 21:37 | 52.99196 | 4.52311 | 39431 ft | 446 kts | 77° |
| 2026-04-23 21:37 | 53.00808 | 4.62273 | 39432 ft | 448 kts | 76° |
| 2026-04-23 21:38 | 53.02409 | 4.72173 | 39438 ft | 448 kts | 77° |
| 2026-04-23 21:38 | 53.04010 | 4.82169 | 39435 ft | 447 kts | 77° |
| 2026-04-23 21:39 | 53.05590 | 4.92162 | 39435 ft | 447 kts | 77° |
| 2026-04-23 21:39 | 53.07164 | 5.02161 | 39436 ft | 447 kts | 77° |
| 2026-04-23 21:40 | 53.08734 | 5.12174 | 39428 ft | 447 kts | 77° |
| 2026-04-23 21:40 | 53.10289 | 5.22188 | 39426 ft | 447 kts | 77° |
| 2026-04-23 21:41 | 53.11838 | 5.32219 | 39426 ft | 447 kts | 77° |
| 2026-04-23 21:41 | 53.13383 | 5.42236 | 39421 ft | 447 kts | 77° |
| 2026-04-23 21:42 | 53.14924 | 5.52259 | 39416 ft | 446 kts | 77° |
| 2026-04-23 21:42 | 53.16444 | 5.62220 | 39411 ft | 446 kts | 77° |
| 2026-04-23 21:43 | 53.17956 | 5.72252 | 39408 ft | 446 kts | 77° |
| 2026-04-23 21:43 | 53.19460 | 5.82302 | 39404 ft | 446 kts | 77° |
| 2026-04-23 21:44 | 53.20962 | 5.92347 | 39402 ft | 446 kts | 77° |
| 2026-04-23 21:44 | 53.22450 | 6.02385 | 39400 ft | 446 kts | 77° |
| 2026-04-23 21:45 | 53.23935 | 6.12435 | 39396 ft | 446 kts | 77° |
| 2026-04-23 21:45 | 53.25412 | 6.22498 | 39395 ft | 446 kts | 77° |
| 2026-04-23 21:46 | 53.26871 | 6.32565 | 39390 ft | 445 kts | 77° |
| 2026-04-23 21:46 | 53.28318 | 6.42629 | 39387 ft | 445 kts | 77° |
| 2026-04-23 21:47 | 53.29750 | 6.52635 | 39384 ft | 446 kts | 77° |
| 2026-04-23 21:47 | 53.31188 | 6.62712 | 39380 ft | 445 kts | 77° |
| 2026-04-23 21:48 | 53.32562 | 6.72811 | 39378 ft | 445 kts | 78° |
| 2026-04-23 21:48 | 53.33825 | 6.82945 | 39377 ft | 445 kts | 78° |
| 2026-04-23 21:49 | 53.35075 | 6.93080 | 39376 ft | 445 kts | 78° |
| 2026-04-23 21:49 | 53.36344 | 7.03200 | 39371 ft | 444 kts | 78° |
| 2026-04-23 21:50 | 53.37616 | 7.13328 | 39370 ft | 444 kts | 78° |
| 2026-04-23 21:50 | 53.38872 | 7.23462 | 39372 ft | 445 kts | 78° |
| 2026-04-23 21:51 | 53.40113 | 7.33623 | 39372 ft | 445 kts | 78° |
| 2026-04-23 21:51 | 53.41341 | 7.43796 | 39364 ft | 446 kts | 78° |
| 2026-04-23 21:52 | 53.42562 | 7.53912 | 39361 ft | 446 kts | 78° |
| 2026-04-23 21:52 | 53.43790 | 7.64112 | 39357 ft | 446 kts | 78° |
| 2026-04-23 21:53 | 53.45005 | 7.74335 | 39349 ft | 447 kts | 78° |
| 2026-04-23 21:53 | 53.46210 | 7.84557 | 39345 ft | 447 kts | 78° |
| 2026-04-23 21:54 | 53.47414 | 7.94801 | 39344 ft | 447 kts | 78° |
| 2026-04-23 21:54 | 53.48612 | 8.05050 | 39340 ft | 447 kts | 77° |
| 2026-04-23 21:55 | 53.49796 | 8.15304 | 39337 ft | 447 kts | 77° |
| 2026-04-23 21:55 | 53.50384 | 8.20437 | 39204 ft | 448 kts | 78° |
| 2026-04-23 21:55 | 53.50969 | 8.25571 | 38950 ft | 447 kts | 78° |
| 2026-04-23 21:55 | 53.51551 | 8.30690 | 38705 ft | 446 kts | 78° |
| 2026-04-23 21:56 | 53.52127 | 8.35803 | 38454 ft | 446 kts | 78° |
| 2026-04-23 21:56 | 53.52703 | 8.40918 | 38201 ft | 445 kts | 78° |
| 2026-04-23 21:56 | 53.53277 | 8.46030 | 37945 ft | 445 kts | 78° |
| 2026-04-23 21:56 | 53.53848 | 8.51146 | 37706 ft | 445 kts | 78° |
| 2026-04-23 21:57 | 53.54418 | 8.56262 | 37365 ft | 444 kts | 78° |
| 2026-04-23 21:57 | 53.54985 | 8.61361 | 36673 ft | 444 kts | 78° |
| 2026-04-23 21:57 | 53.55553 | 8.66486 | 35853 ft | 446 kts | 78° |
| 2026-04-23 21:57 | 53.56117 | 8.71635 | 34984 ft | 449 kts | 78° |
| 2026-04-23 21:58 | 53.56684 | 8.76822 | 34130 ft | 452 kts | 78° |
| 2026-04-23 21:58 | 53.57255 | 8.82041 | 33133 ft | 457 kts | 78° |
| 2026-04-23 21:58 | 53.57832 | 8.87323 | 32100 ft | 461 kts | 78° |
| 2026-04-23 21:58 | 53.58402 | 8.92587 | 31108 ft | 464 kts | 78° |
| 2026-04-23 21:59 | 53.58977 | 8.97944 | 29966 ft | 467 kts | 78° |
| 2026-04-23 21:59 | 53.59551 | 9.03318 | 29246 ft | 463 kts | 78° |
| 2026-04-23 21:59 | 53.60113 | 9.08609 | 28574 ft | 457 kts | 78° |
| 2026-04-23 22:00 | 53.61035 | 9.17292 | 27412 ft | 449 kts | 77° |
| 2026-04-23 22:00 | 53.61581 | 9.22453 | 26727 ft | 445 kts | 77° |
| 2026-04-23 22:00 | 53.62120 | 9.27569 | 26056 ft | 441 kts | 77° |
| 2026-04-23 22:00 | 53.62650 | 9.32635 | 25383 ft | 438 kts | 77° |
| 2026-04-23 22:01 | 53.63175 | 9.37670 | 24724 ft | 434 kts | 77° |
| 2026-04-23 22:01 | 53.63692 | 9.42656 | 24072 ft | 430 kts | 77° |
| 2026-04-23 22:01 | 53.64200 | 9.47604 | 23444 ft | 427 kts | 77° |
| 2026-04-23 22:01 | 53.64701 | 9.52516 | 22823 ft | 424 kts | 77° |
| 2026-04-23 22:02 | 53.65235 | 9.57363 | 22254 ft | 418 kts | 72° |
| 2026-04-23 22:02 | 53.66112 | 9.61986 | 21697 ft | 411 kts | 66° |
| 2026-04-23 22:02 | 53.67078 | 9.66496 | 21181 ft | 408 kts | 66° |
| 2026-04-23 22:02 | 53.68035 | 9.70978 | 20668 ft | 404 kts | 66° |
| 2026-04-23 22:03 | 53.68977 | 9.75412 | 20170 ft | 400 kts | 67° |
| 2026-04-23 22:03 | 53.69912 | 9.79820 | 19676 ft | 397 kts | 67° |
| 2026-04-23 22:03 | 53.70837 | 9.84183 | 19187 ft | 393 kts | 67° |
| 2026-04-23 22:03 | 53.71752 | 9.88515 | 18565 ft | 393 kts | 67° |
| 2026-04-23 22:04 | 53.72669 | 9.92858 | 17988 ft | 391 kts | 67° |
| 2026-04-23 22:04 | 53.73574 | 9.97164 | 17485 ft | 388 kts | 67° |
| 2026-04-23 22:04 | 53.74474 | 10.01460 | 16963 ft | 386 kts | 67° |
| 2026-04-23 22:04 | 53.75361 | 10.05714 | 16435 ft | 384 kts | 67° |
| 2026-04-23 22:05 | 53.76244 | 10.09963 | 15902 ft | 381 kts | 67° |
| 2026-04-23 22:05 | 53.77121 | 10.14172 | 15372 ft | 379 kts | 67° |
| 2026-04-23 22:05 | 53.77995 | 10.18364 | 14832 ft | 377 kts | 67° |
| 2026-04-23 22:05 | 53.78858 | 10.22532 | 14286 ft | 375 kts | 66° |
| 2026-04-23 22:06 | 53.79716 | 10.26678 | 13749 ft | 372 kts | 66° |
| 2026-04-23 22:06 | 53.80567 | 10.30798 | 13198 ft | 370 kts | 66° |
| 2026-04-23 22:06 | 53.81412 | 10.34894 | 12651 ft | 368 kts | 66° |
| 2026-04-23 22:06 | 53.82238 | 10.38917 | 12107 ft | 365 kts | 66° |
| 2026-04-23 22:07 | 53.83065 | 10.42966 | 11547 ft | 362 kts | 66° |
| 2026-04-23 22:07 | 53.83884 | 10.46988 | 10980 ft | 360 kts | 66° |
| 2026-04-23 22:07 | 53.84695 | 10.50958 | 10618 ft | 351 kts | 66° |
| 2026-04-23 22:07 | 53.85474 | 10.54784 | 10491 ft | 336 kts | 66° |
| 2026-04-23 22:08 | 53.86217 | 10.58457 | 10364 ft | 323 kts | 66° |
| 2026-04-23 22:08 | 53.86930 | 10.61988 | 10238 ft | 311 kts | 66° |
| 2026-04-23 22:08 | 53.87618 | 10.65395 | 10072 ft | 301 kts | 66° |
| 2026-04-23 22:08 | 53.88293 | 10.68713 | 9902 ft | 295 kts | 66° |
| 2026-04-23 22:09 | 53.88966 | 10.72017 | 9528 ft | 299 kts | 66° |
| 2026-04-23 22:09 | 53.89638 | 10.75335 | 9176 ft | 297 kts | 66° |
| 2026-04-23 22:09 | 53.90305 | 10.78647 | 8793 ft | 295 kts | 66° |
| 2026-04-23 22:09 | 53.90969 | 10.81936 | 8381 ft | 294 kts | 66° |
| 2026-04-23 22:10 | 53.91628 | 10.85209 | 7982 ft | 293 kts | 66° |
| 2026-04-23 22:10 | 53.92281 | 10.88471 | 7598 ft | 291 kts | 67° |
| 2026-04-23 22:10 | 53.92926 | 10.91706 | 7197 ft | 288 kts | 67° |
| 2026-04-23 22:10 | 53.93565 | 10.94913 | 6865 ft | 284 kts | 67° |
| 2026-04-23 22:11 | 53.94184 | 10.98028 | 6720 ft | 273 kts | 68° |
| 2026-04-23 22:11 | 53.94443 | 11.01153 | 6596 ft | 268 kts | 95° |
| 2026-04-23 22:11 | 53.93747 | 11.03993 | 6391 ft | 265 kts | 129° |
| 2026-04-23 22:11 | 53.92287 | 11.05838 | 6055 ft | 263 kts | 158° |
| 2026-04-23 22:12 | 53.90523 | 11.06543 | 5574 ft | 262 kts | 181° |
| 2026-04-23 22:12 | 53.88755 | 11.06031 | 4976 ft | 255 kts | 207° |
| 2026-04-23 22:12 | 53.87301 | 11.04453 | 4463 ft | 244 kts | 229° |
| 2026-04-23 22:12 | 53.86335 | 11.02178 | 3927 ft | 235 kts | 251° |
| 2026-04-23 22:13 | 53.85806 | 10.99608 | 3394 ft | 230 kts | 257° |
| 2026-04-23 22:13 | 53.85327 | 10.97058 | 2969 ft | 224 kts | 257° |
| 2026-04-23 22:13 | 53.84860 | 10.94598 | 2653 ft | 214 kts | 256° |
| 2026-04-23 22:13 | 53.84414 | 10.92255 | 2365 ft | 204 kts | 256° |
| 2026-04-23 22:14 | 53.83991 | 10.90027 | 2094 ft | 194 kts | 256° |
| 2026-04-23 22:14 | 53.83593 | 10.87932 | 1872 ft | 178 kts | 256° |
| 2026-04-23 22:14 | 53.83229 | 10.86033 | 1626 ft | 161 kts | 255° |
| 2026-04-23 22:14 | 53.82902 | 10.84335 | 1434 ft | 145 kts | 256° |
| 2026-04-23 22:15 | 53.82614 | 10.82758 | 1228 ft | 136 kts | 255° |
| 2026-04-23 22:15 | 53.82314 | 10.81222 | 1056 ft | 138 kts | 255° |
| 2026-04-23 22:15 | 53.82016 | 10.79674 | 884 ft | 139 kts | 254° |
| 2026-04-23 22:15 | 53.81717 | 10.78146 | 724 ft | 137 kts | 253° |
| 2026-04-23 22:16 | 53.81434 | 10.76614 | 527 ft | 136 kts | 255° |
| 2026-04-23 22:16 | 53.81188 | 10.75083 | 331 ft | 134 kts | 256° |
| 2026-04-23 22:16 | 53.80873 | 10.73605 | 147 ft | 134 kts | 251° |
| 2026-04-23 22:16 | 53.80573 | 10.72227 | 59 ft | 94 kts | 251° |
| 2026-04-23 22:17 | 53.80409 | 10.71271 | 62 ft | 78 kts | 253° |
| 2026-04-23 22:17 | 53.80273 | 10.70543 | 58 ft | 45 kts | 252° |
| 2026-04-23 22:17 | 53.80216 | 10.70200 | 62 ft | 9 kts | 306° |
| 2026-04-23 22:17 | 53.80266 | 10.70155 | 62 ft | 10 kts | 337° |
| 2026-04-23 22:18 | 53.80356 | 10.70123 | 60 ft | 15 kts | 357° |
| 2026-04-23 22:18 | 53.80419 | 10.70234 | 58 ft | 4 kts | 42° |
| 2026-04-23 22:18 | 53.80437 | 10.70258 | 52 ft | 0 kts | 39° |
| 2026-04-23 22:18 | 53.80456 | 10.70261 | 59 ft | 1 kts | 347° |
| 2026-04-23 22:19 | 53.80458 | 10.70258 | 53 ft | 0 kts | 335° |
| 2026-04-23 22:19 | 53.80464 | 10.70250 | 56 ft | 0 kts | 325° |